Time;durP1;ratioP1;P1;durP2;ratioP2;P2;SDS_P1;SDS_P2;PMS_P1;PMS_P2;Temp;Humidity;BMP_temperature;BMP_pressure;BME280_temperature;BME280_humidity;BME280_pressure;Samples;Min_cycle;Max_cycle;Signal;HPM_P1;HPM_P2
2022/01/28 00:04:55;;;;;;;9.50;0.70;;;;;;;-146.48;100.00;35877.47;5281819;28;20377;-68
2022/01/28 00:07:26;;;;;;;15.32;0.65;;;;;;;-146.48;100.00;35851.56;5282284;28;20040;-68
2022/01/28 00:09:57;;;;;;;12.93;1.30;;;;;;;-146.48;100.00;35903.34;5282349;28;20020;-69
2022/01/28 00:12:30;;;;;;;14.48;1.05;;;;;;;-146.48;100.00;35943.19;5282104;28;20016;-69
2022/01/28 00:15:07;;;;;;;17.50;1.17;;;;;;;-146.48;100.00;35971.06;5282187;28;20021;-69
2022/01/28 00:18:37;;;;;;;11.80;0.90;;;;;;;-146.48;100.00;35996.94;5282560;28;20369;-69
2022/01/28 00:40:22;;;;;;;10.43;1.05;;;;;;;-146.48;100.00;36265.81;5281088;28;20032;-69
2022/01/28 00:42:53;;;;;;;13.40;1.67;;;;;;;-146.48;100.00;36281.75;5280976;28;20460;-70
2022/01/28 00:45:25;;;;;;;9.85;1.67;;;;;;;-146.48;100.00;36295.69;5280909;28;20525;-68
2022/01/28 00:47:56;;;;;;;13.05;0.80;;;;;;;-146.48;100.00;36339.50;5281231;28;20032;-69
2022/01/28 00:50:27;;;;;;;11.77;1.05;;;;;;;-146.48;100.00;36301.66;5282264;28;20503;-68
2022/01/28 00:52:59;;;;;;;9.82;0.90;;;;;;;-146.48;100.00;36255.84;5280902;28;20081;-69
2022/01/28 00:55:30;;;;;;;13.07;1.70;;;;;;;-146.48;100.00;36212.03;5282068;28;20041;-68
2022/01/28 00:58:02;;;;;;;9.93;0.70;;;;;;;-146.48;100.00;36196.09;5281448;28;20017;-69
2022/01/28 01:00:33;;;;;;;16.15;0.80;;;;;;;-146.48;100.00;36198.09;5281490;28;20503;-67
2022/01/28 01:03:04;;;;;;;12.10;0.82;;;;;;;-146.48;100.00;36186.16;5281704;28;20033;-67
2022/01/28 01:05:36;;;;;;;12.15;0.73;;;;;;;-146.48;100.00;36152.28;5281982;28;20025;-67
2022/01/28 01:08:07;;;;;;;8.95;0.80;;;;;;;-146.48;100.00;36222.00;5280435;28;20048;-67
2022/01/28 01:10:39;;;;;;;12.95;0.90;;;;;;;-146.48;100.00;36092.53;5282209;28;20368;-67
2022/01/28 01:13:10;;;;;;;8.07;0.60;;;;;;;-146.48;100.00;36120.44;5283321;28;20028;-68
2022/01/28 01:15:45;;;;;;;13.57;1.08;;;;;;;-146.48;100.00;36076.63;5285625;28;20464;-68
2022/01/28 01:23:25;;;;;;;10.52;0.98;;;;;;;-146.48;100.00;36028.81;5284990;28;20430;-68
2022/01/28 01:26:07;;;;;;;11.48;0.60;;;;;;;-146.48;100.00;36010.91;5285502;28;20499;-69
2022/01/28 01:28:40;;;;;;;15.98;1.02;;;;;;;-146.48;100.00;36020.84;5285280;28;20357;-67
2022/01/28 01:31:18;;;;;;;7.80;0.50;;;;;;;-146.48;100.00;36072.63;5285279;28;20440;-67
2022/01/28 01:34:03;;;;;;;12.35;1.48;;;;;;;-146.48;100.00;36006.91;5286082;28;20020;-67
2022/01/28 01:36:34;;;;;;;11.15;0.88;;;;;;;-146.48;100.00;36046.75;5285125;28;20025;-68
2022/01/28 01:39:09;;;;;;;9.82;0.60;;;;;;;-146.48;100.00;35969.06;5285121;28;20039;-68
2022/01/28 01:41:47;;;;;;;10.48;0.70;;;;;;;-146.48;100.00;35967.09;5285632;28;20452;-68
2022/01/28 01:52:02;;;;;;;12.98;1.05;;;;;;;-146.48;100.00;36088.56;5263926;28;20035;-68
2022/01/28 01:53:01;;;;;;;14.90;1.20;;;;;;;-146.48;100.00;36134.38;5285004;28;20036;-68
2022/01/28 01:55:33;;;;;;;7.07;0.50;;;;;;;-146.48;100.00;36202.09;5285346;28;20025;-68
2022/01/28 01:58:04;;;;;;;12.05;1.52;;;;;;;-146.48;100.00;36257.84;5284068;28;20475;-68
2022/01/28 02:00:36;;;;;;;15.07;1.13;;;;;;;-146.48;100.00;36307.63;5285469;28;20038;-68
2022/01/28 02:03:07;;;;;;;11.27;1.27;;;;;;;-146.48;100.00;36335.53;5284980;28;20050;-68
2022/01/28 02:05:38;;;;;;;16.80;1.52;;;;;;;-146.48;100.00;36327.56;5284703;28;20020;-68
2022/01/28 02:08:10;;;;;;;12.18;1.35;;;;;;;-146.48;100.00;36387.31;5284418;28;20048;-67
2022/01/28 02:10:41;;;;;;;16.50;1.02;;;;;;;-146.48;100.00;36385.31;5284346;28;20078;-68
2022/01/28 02:13:12;;;;;;;13.05;0.70;;;;;;;-146.48;100.00;36441.06;5284749;28;20367;-68
2022/01/28 02:15:44;;;;;;;12.73;1.38;;;;;;;-146.48;100.00;36431.13;5285206;28;20028;-68
2022/01/28 02:18:15;;;;;;;16.45;0.90;;;;;;;-146.48;100.00;36468.97;5283584;28;20028;-68
2022/01/28 02:20:49;;;;;;;10.15;0.93;;;;;;;-146.48;100.00;36459.00;5284980;28;20415;-68
2022/01/28 02:23:22;;;;;;;13.10;1.02;;;;;;;-146.48;100.00;36441.06;5284511;28;20024;-68
2022/01/28 02:25:56;;;;;;;16.77;1.10;;;;;;;-146.48;100.00;36387.31;5283135;28;20028;-68
2022/01/28 02:28:32;;;;;;;7.45;0.60;;;;;;;-146.48;100.00;36512.78;5284981;28;20480;-68
2022/01/28 02:31:04;;;;;;;11.77;0.95;;;;;;;-146.48;100.00;36530.69;5284202;28;20060;-70
2022/01/28 02:33:36;;;;;;;15.32;1.00;;;;;;;-146.48;100.00;36522.75;5283851;28;20029;-68
2022/01/28 02:36:07;;;;;;;9.70;1.90;;;;;;;-146.48;100.00;36542.66;5284028;28;20086;-68
2022/01/28 02:38:39;;;;;;;15.75;0.80;;;;;;;-146.48;100.00;36494.84;5283926;28;20437;-68
2022/01/28 02:41:10;;;;;;;7.68;0.60;;;;;;;-146.48;100.00;36600.41;5284026;28;20036;-68
2022/01/28 02:46:34;;;;;;;10.68;1.05;;;;;;;-146.48;100.00;36514.78;5283617;28;20060;-68
2022/01/28 02:49:10;;;;;;;10.02;0.68;;;;;;;-146.48;100.00;36572.53;5284118;28;20032;-69
2022/01/28 02:51:43;;;;;;;10.27;0.70;;;;;;;-146.48;100.00;36570.53;5284631;28;20035;-69
2022/01/28 02:54:17;;;;;;;9.23;0.70;;;;;;;-146.48;100.00;36546.63;5283032;28;20028;-68
2022/01/28 02:56:52;;;;;;;16.13;1.13;;;;;;;-146.48;100.00;36580.50;5284492;28;20025;-68
2022/01/28 02:59:23;;;;;;;11.05;0.50;;;;;;;-146.48;100.00;36638.25;5283803;28;20021;-68
2022/01/28 03:01:54;;;;;;;14.65;1.13;;;;;;;-146.48;100.00;36610.38;5283252;28;20027;-68
2022/01/28 03:06:57;;;;;;;13.75;1.48;;;;;;;-146.48;100.00;36598.44;5282537;28;20083;-68
2022/01/28 03:09:46;;;;;;;15.57;1.40;;;;;;;-146.48;100.00;36594.44;5283871;28;20472;-69
2022/01/28 03:12:21;;;;;;;12.20;0.70;;;;;;;-146.48;100.00;36654.19;5283398;28;20032;-67
2022/01/28 03:20:30;;;;;;;15.05;1.27;;;;;;;-146.48;100.00;36686.06;5283329;28;20033;-69
2022/01/28 03:22:56;;;;;;;9.45;0.60;;;;;;;-146.48;100.00;36590.47;5282405;28;20472;-69
2022/01/28 03:25:28;;;;;;;11.20;1.05;;;;;;;-146.48;100.00;36522.75;5283465;28;20082;-69
2022/01/28 03:28:00;;;;;;;11.18;0.68;;;;;;;-146.48;100.00;36554.59;5282445;28;20028;-69
2022/01/28 03:30:31;;;;;;;13.52;1.70;;;;;;;-146.48;100.00;36554.59;5283439;28;20024;-69
2022/01/28 03:33:03;;;;;;;11.60;0.77;;;;;;;-146.48;100.00;36502.81;5282984;28;20468;-70
2022/01/28 03:35:35;;;;;;;12.32;1.17;;;;;;;-146.48;100.00;36429.13;5282206;28;20031;-70
2022/01/28 03:38:11;;;;;;;13.90;0.95;;;;;;;-146.48;100.00;36478.91;5282228;28;20029;-69
2022/01/28 03:40:43;;;;;;;11.95;1.02;;;;;;;-146.48;100.00;36395.28;5283784;28;20018;-70
2022/01/28 03:43:14;;;;;;;11.13;0.75;;;;;;;-146.48;100.00;36387.31;5282129;28;20055;-69
2022/01/28 03:45:45;;;;;;;8.80;0.60;;;;;;;-146.48;100.00;36462.97;5283284;28;20028;-70
2022/01/28 03:48:16;;;;;;;14.60;0.68;;;;;;;-146.48;100.00;36498.84;5282684;28;20024;-67
2022/01/28 03:50:50;;;;;;;8.27;0.60;;;;;;;-146.48;100.00;36538.66;5282220;28;20020;-67
2022/01/28 03:53:22;;;;;;;13.80;0.70;;;;;;;-146.48;100.00;36564.56;5282603;28;20432;-68
2022/01/28 03:55:56;;;;;;;8.88;0.55;;;;;;;-146.48;100.00;36560.59;5282265;28;20032;-68
2022/01/28 03:58:27;;;;;;;7.18;0.57;;;;;;;-146.48;100.00;36572.53;5283080;28;20024;-67
2022/01/28 04:00:59;;;;;;;12.85;0.77;;;;;;;-146.48;100.00;36598.44;5282205;28;20025;-69
2022/01/28 04:11:31;;;;;;;11.02;1.05;;;;;;;-146.48;100.00;36634.28;5281807;28;20037;-69
2022/01/28 04:14:12;;;;;;;8.43;0.60;;;;;;;-146.48;100.00;36725.91;5282406;28;20539;-68
2022/01/28 04:19:35;;;;;;;8.68;0.52;;;;;;;-146.48;100.00;36849.41;5283171;28;20040;-68
2022/01/28 04:22:06;;;;;;;4.53;0.38;;;;;;;-146.48;100.00;36893.22;5282000;28;20418;-68
2022/01/28 04:24:37;;;;;;;6.90;0.50;;;;;;;-146.48;100.00;36897.19;5281802;28;20074;-68
2022/01/28 04:27:09;;;;;;;8.98;0.93;;;;;;;-146.48;100.00;36827.47;5281953;28;20020;-68
2022/01/28 04:29:40;;;;;;;11.73;1.13;;;;;;;-146.48;100.00;36949.00;5282521;28;20012;-68
2022/01/28 04:32:12;;;;;;;7.07;0.70;;;;;;;-146.48;100.00;36921.09;5280922;28;20028;-69
2022/01/28 04:34:43;;;;;;;6.82;0.60;;;;;;;-146.48;100.00;36978.88;5282645;28;20024;-68
2022/01/28 04:37:24;;;;;;;8.55;0.60;;;;;;;-146.48;100.00;36901.19;5282038;28;20111;-68
2022/01/28 04:40:04;;;;;;;10.80;0.80;;;;;;;-146.48;100.00;36923.09;5281391;28;20078;-69
2022/01/28 04:53:41;;;;;;;11.75;1.45;;;;;;;-146.48;100.00;37092.41;5281408;28;20115;-68
2022/01/28 04:56:27;;;;;;;15.25;1.85;;;;;;;-146.48;100.00;37066.53;5281733;28;20032;-67
2022/01/28 05:07:14;;;;;;;15.85;1.50;;;;;;;-146.48;100.00;37313.53;5281253;28;20036;-68
2022/01/28 05:23:32;;;;;;;16.83;1.77;;;;;;;-146.48;100.00;37484.88;5281608;28;20032;-69
2022/01/28 05:26:23;;;;;;;11.10;1.25;;;;;;;-146.48;100.00;37632.28;5281368;28;20052;-70
2022/01/28 05:28:55;;;;;;;12.77;1.80;;;;;;;-146.48;100.00;37574.50;5281042;28;20044;-69
2022/01/28 05:31:26;;;;;;;21.38;3.92;;;;;;;-146.48;100.00;37749.84;5281872;28;20358;-70
2022/01/28 05:33:58;;;;;;;20.85;2.42;;;;;;;-146.48;100.00;37891.28;5281401;28;20055;-70
2022/01/28 05:36:29;;;;;;;18.08;1.95;;;;;;;-146.48;100.00;38060.66;5281195;28;20115;-69
2022/01/28 05:39:01;;;;;;;12.73;2.00;;;;;;;-146.48;100.00;38116.44;5281483;28;20024;-69
2022/01/28 05:41:33;;;;;;;13.23;1.70;;;;;;;-146.48;100.00;38212.09;5281230;28;20035;-69
2022/01/28 05:44:04;;;;;;;13.18;1.85;;;;;;;-146.48;100.00;38228.03;5281306;28;20033;-69
2022/01/28 05:46:35;;;;;;;22.27;1.80;;;;;;;-146.48;100.00;38355.56;5282038;28;20054;-69
2022/01/28 05:49:07;;;;;;;14.10;1.60;;;;;;;-146.48;100.00;38431.28;5280594;28;20025;-68
2022/01/28 05:51:40;;;;;;;16.45;1.52;;;;;;;-146.48;100.00;38562.81;5281882;28;20028;-69
2022/01/28 05:54:12;;;;;;;18.67;2.88;;;;;;;-146.48;100.00;38536.91;5281156;28;20579;-69
2022/01/28 05:56:43;;;;;;;16.05;1.65;;;;;;;-146.48;100.00;38558.81;5280955;28;20055;-69
2022/01/28 05:59:14;;;;;;;16.30;2.03;;;;;;;-146.48;100.00;38520.97;5281257;28;20444;-69
2022/01/28 06:01:46;;;;;;;16.83;2.78;;;;;;;-146.48;100.00;38528.94;5285405;28;20070;-69
2022/01/28 06:04:19;;;;;;;19.40;1.95;;;;;;;-146.48;100.00;38604.66;5284183;28;20581;-69
2022/01/28 06:06:51;;;;;;;14.00;2.20;;;;;;;-146.48;100.00;38564.78;5285270;28;20049;-69
2022/01/28 06:09:22;;;;;;;12.82;1.70;;;;;;;-146.48;100.00;38640.53;5284783;28;20037;-70
2022/01/28 06:11:53;;;;;;;14.32;2.28;;;;;;;-146.48;100.00;38610.63;5284222;28;20438;-69
2022/01/28 06:14:24;;;;;;;18.35;2.70;;;;;;;-146.48;100.00;38698.31;5284878;28;20044;-67
2022/01/28 06:16:56;;;;;;;23.60;2.15;;;;;;;-146.48;100.00;38692.34;5284196;28;20028;-67
2022/01/28 06:19:27;;;;;;;11.63;2.22;;;;;;;-146.48;100.00;38736.19;5284770;28;20020;-68
2022/01/28 06:21:59;;;;;;;22.10;2.80;;;;;;;-146.48;100.00;39009.22;5284342;28;20480;-68
2022/01/28 06:24:30;;;;;;;18.35;1.75;;;;;;;-146.48;100.00;39156.69;5284077;28;20032;-69
2022/01/28 06:27:02;;;;;;;12.13;2.30;;;;;;;-146.48;100.00;39136.75;5284171;28;20020;-68
2022/01/28 06:29:33;;;;;;;13.75;1.55;;;;;;;-146.48;100.00;39276.28;5284725;28;20060;-68
2022/01/28 06:32:05;;;;;;;13.20;1.90;;;;;;;-146.48;100.00;39328.09;5283470;28;20531;-68
2022/01/28 06:34:38;;;;;;;13.55;1.58;;;;;;;-146.48;100.00;39324.13;5284712;28;20025;-68
2022/01/28 06:37:09;;;;;;;14.13;1.98;;;;;;;-146.48;100.00;39505.50;5284147;28;20051;-68
2022/01/28 06:39:41;;;;;;;19.05;2.10;;;;;;;-146.48;100.00;39533.41;5283904;28;20127;-68
2022/01/28 06:42:13;;;;;;;13.55;2.05;;;;;;;-146.48;100.00;39583.22;5284112;28;20044;-68
2022/01/28 06:44:44;;;;;;;19.15;2.10;;;;;;;-146.48;100.00;39718.78;5283849;28;20036;-68
2022/01/28 06:47:15;;;;;;;20.95;1.75;;;;;;;-146.48;100.00;39820.44;5283888;28;20144;-68
2022/01/28 06:49:46;;;;;;;15.98;1.92;;;;;;;-146.48;100.00;39758.66;5284385;28;20029;-68
2022/01/28 06:52:18;;;;;;;21.50;2.40;;;;;;;-146.48;100.00;39694.88;5283181;28;20025;-68
2022/01/28 06:54:49;;;;;;;17.73;2.42;;;;;;;-146.48;100.00;39674.94;5284398;28;20050;-68
2022/01/28 06:57:20;;;;;;;14.15;2.50;;;;;;;-146.48;100.00;39746.69;5283618;28;20028;-68
2022/01/28 06:59:52;;;;;;;13.30;2.40;;;;;;;-146.48;100.00;39824.44;5283544;28;20074;-68
2022/01/28 07:02:23;;;;;;;10.98;1.90;;;;;;;-146.48;100.00;39848.34;5283776;28;20096;-69
2022/01/28 07:04:55;;;;;;;12.95;2.42;;;;;;;-146.48;100.00;39910.16;5283839;28;20089;-69
2022/01/28 07:07:27;;;;;;;11.52;1.98;;;;;;;-146.48;100.00;39828.41;5282729;28;20045;-68
2022/01/28 07:09:58;;;;;;;14.85;1.90;;;;;;;-146.48;100.00;39820.44;5283143;28;20369;-69
2022/01/28 07:12:29;;;;;;;16.38;2.17;;;;;;;-146.48;100.00;39722.78;5283738;28;20381;-69
2022/01/28 07:15:00;;;;;;;15.60;2.50;;;;;;;-146.48;100.00;39832.41;5282556;28;20020;-69
2022/01/28 07:17:32;;;;;;;17.25;2.65;;;;;;;-146.48;100.00;39930.09;5284038;28;20028;-69
2022/01/28 07:20:05;;;;;;;15.50;2.28;;;;;;;-146.48;100.00;39965.97;5282279;28;20068;-69
2022/01/28 07:22:36;;;;;;;15.48;2.28;;;;;;;-146.48;100.00;39936.06;5283537;28;20024;-69
2022/01/28 07:25:07;;;;;;;15.88;2.03;;;;;;;-146.48;100.00;40153.34;5282782;28;20032;-69
2022/01/28 07:27:39;;;;;;;13.03;2.00;;;;;;;-146.48;100.00;40342.75;5282749;28;20424;-69
2022/01/28 07:30:11;;;;;;;19.30;3.00;;;;;;;-146.48;100.00;40426.47;5283153;28;20487;-71
2022/01/28 07:32:43;;;;;;;15.27;2.43;;;;;;;-146.48;100.00;40498.25;5282799;28;20032;-69
2022/01/28 07:35:14;;;;;;;12.82;2.78;;;;;;;-146.48;100.00;40643.81;5281745;28;20025;-69
2022/01/28 07:37:45;;;;;;;18.60;3.10;;;;;;;-146.48;100.00;40687.66;5283137;28;20535;-69
2022/01/28 07:40:17;;;;;;;11.73;2.07;;;;;;;-146.48;100.00;40924.94;5282700;28;20456;-69
2022/01/28 07:42:48;;;;;;;12.47;2.00;;;;;;;-146.48;100.00;41082.47;5282296;28;20523;-68
2022/01/28 07:45:20;;;;;;;11.03;2.33;;;;;;;-146.48;100.00;41118.38;5282817;28;20522;-67
2022/01/28 07:47:51;;;;;;;15.37;2.37;;;;;;;-146.48;100.00;41301.81;5282892;28;20078;-68
2022/01/28 07:50:22;;;;;;;19.45;2.80;;;;;;;-146.48;100.00;41654.81;5281533;28;20021;-67
2022/01/28 07:52:54;;;;;;;13.15;2.50;;;;;;;-146.48;100.00;41916.06;5282658;28;20032;-67
2022/01/28 07:55:25;;;;;;;15.03;2.63;;;;;;;-146.48;100.00;42051.69;5282034;28;20033;-68
2022/01/28 07:57:56;;;;;;;11.97;2.03;;;;;;;-146.48;100.00;42115.53;5282369;28;20024;-68
2022/01/28 08:00:28;;;;;;;13.48;2.05;;;;;;;-146.48;100.00;42119.50;5282796;28;20099;-68
2022/01/28 08:02:59;;;;;;;16.77;3.13;;;;;;;-146.48;100.00;42047.72;5281616;28;20016;-69
2022/01/28 08:05:31;;;;;;;11.07;2.35;;;;;;;-146.48;100.00;42103.56;5281875;28;20024;-68
2022/01/28 08:08:05;;;;;;;16.25;2.83;;;;;;;-146.48;100.00;42113.53;5280591;28;20036;-68
2022/01/28 08:10:36;;;;;;;9.40;1.60;;;;;;;-146.48;100.00;41971.91;5280665;28;20021;-69
2022/01/28 08:13:07;;;;;;;13.63;2.17;;;;;;;-146.48;100.00;41335.72;5280649;28;20506;-69
2022/01/28 08:15:40;;;;;;;11.43;1.48;;;;;;;-146.48;100.00;40298.88;5281503;28;20100;-69
2022/01/28 08:18:11;;;;;;;10.52;1.90;;;;;;;-146.48;100.00;40137.41;5279970;28;20078;-69
2022/01/28 08:20:44;;;;;;;9.70;1.30;;;;;;;-146.48;100.00;40753.47;5281031;28;20032;-68
2022/01/28 08:23:16;;;;;;;10.32;1.60;;;;;;;-146.48;100.00;41010.69;5279142;28;20107;-69
2022/01/28 08:25:51;;;;;;;9.20;1.70;;;;;;;-146.48;100.00;41154.25;5281032;28;20039;-68
2022/01/28 08:28:22;;;;;;;8.75;1.40;;;;;;;-146.48;100.00;41214.09;5280619;28;20032;-68
2022/01/28 08:30:54;;;;;;;12.82;1.65;;;;;;;-146.48;100.00;40994.72;5280168;28;20032;-69
2022/01/28 08:33:26;;;;;;;15.95;2.15;;;;;;;-146.48;100.00;40899.03;5280199;28;20031;-68
2022/01/28 08:35:58;;;;;;;11.73;1.98;;;;;;;-146.48;100.00;40879.09;5280420;28;20024;-69
2022/01/28 08:38:35;;;;;;;16.02;2.47;;;;;;;-146.48;100.00;40428.47;5280752;28;20031;-68
2022/01/28 08:41:07;;;;;;;11.25;2.03;;;;;;;-146.48;100.00;39445.69;5280698;28;20056;-69
2022/01/28 08:43:39;;;;;;;9.30;1.83;;;;;;;-146.48;100.00;39383.91;5281130;28;20059;-66
2022/01/28 08:46:11;;;;;;;7.45;1.52;;;;;;;-146.48;100.00;39651.00;5283161;28;20487;-67
2022/01/28 08:48:43;;;;;;;6.07;1.38;;;;;;;-146.48;100.00;39627.09;5301129;28;20107;-68
2022/01/28 08:51:15;;;;;;;11.10;1.60;;;;;;;-146.48;100.00;39220.47;5301590;28;20380;-68
2022/01/28 08:53:47;;;;;;;10.60;1.63;;;;;;;-146.48;100.00;39031.13;5301982;28;20028;-68
2022/01/28 08:56:18;;;;;;;11.27;1.63;;;;;;;-146.48;100.00;38670.41;5300691;28;20089;-69
2022/01/28 08:58:50;;;;;;;13.05;2.30;;;;;;;-146.48;100.00;38339.63;5301646;28;20073;-69
2022/01/28 09:01:21;;;;;;;10.32;1.63;;;;;;;-146.48;100.00;38345.59;5302277;28;20537;-69
2022/01/28 09:03:52;;;;;;;14.52;1.73;;;;;;;-146.48;100.00;38389.44;5302235;28;20032;-69
2022/01/28 09:06:24;;;;;;;11.48;1.63;;;;;;;-146.48;100.00;37835.50;5301145;28;20098;-68
2022/01/28 09:08:59;;;;;;;13.30;1.48;;;;;;;-146.48;100.00;37642.25;5302427;28;20032;-68
2022/01/28 09:14:22;;;;;;;10.50;1.88;;;;;;;-146.48;100.00;37580.50;5301544;28;20487;-67
2022/01/28 09:16:54;;;;;;;14.70;2.05;;;;;;;-146.48;100.00;37544.63;5302215;28;20031;-69
2022/01/28 09:19:26;;;;;;;12.88;2.20;;;;;;;-146.48;100.00;37781.72;5301522;28;20027;-68
2022/01/28 09:21:57;;;;;;;13.15;1.67;;;;;;;-146.48;100.00;37646.25;5301710;28;20028;-69
2022/01/28 09:24:28;;;;;;;15.27;2.08;;;;;;;-146.48;100.00;37692.06;5302776;28;20032;-68
2022/01/28 09:26:59;;;;;;;18.52;3.35;;;;;;;-146.48;100.00;37821.56;5301412;28;20028;-70
2022/01/28 09:29:31;;;;;;;13.10;2.53;;;;;;;-146.48;100.00;37875.34;5302593;28;20020;-70
2022/01/28 09:32:03;;;;;;;13.82;2.03;;;;;;;-146.48;100.00;37821.56;5302081;28;20459;-69
2022/01/28 09:34:35;;;;;;;16.73;2.60;;;;;;;-146.48;100.00;37777.72;5304700;28;20477;-68
2022/01/28 09:37:06;;;;;;;10.55;2.30;;;;;;;-146.48;100.00;37775.75;5306487;28;20055;-67
2022/01/28 09:39:43;;;;;;;11.80;2.38;;;;;;;-146.48;100.00;37636.28;5306814;28;20020;-66
2022/01/28 09:42:16;;;;;;;16.00;2.20;;;;;;;-146.48;100.00;37606.38;5305481;28;20122;-69
2022/01/28 09:44:48;;;;;;;15.25;3.03;;;;;;;-146.48;100.00;37670.16;5306407;28;20475;-68
2022/01/28 09:47:20;;;;;;;11.60;3.42;;;;;;;-146.48;100.00;37642.25;5305917;28;20059;-68
2022/01/28 09:49:52;;;;;;;16.98;3.58;;;;;;;-146.48;100.00;37664.16;5305646;28;20020;-68
2022/01/28 09:52:23;;;;;;;16.15;2.97;;;;;;;-146.48;100.00;37692.06;5305794;28;20451;-68
2022/01/28 09:54:55;;;;;;;13.38;3.40;;;;;;;-146.48;100.00;37729.91;5305422;28;20032;-68
2022/01/28 09:57:26;;;;;;;19.30;3.10;;;;;;;-146.48;100.00;37867.38;5306119;28;20028;-68
2022/01/28 09:59:58;;;;;;;19.50;3.25;;;;;;;-146.48;100.00;37881.34;5305679;28;20020;-70
2022/01/28 10:02:50;;;;;;;15.05;2.80;;;;;;;-146.48;100.00;37953.06;5305547;28;20556;-69
2022/01/28 10:05:27;;;;;;;17.00;3.75;;;;;;;-146.48;100.00;37973.00;5305636;28;20032;-68
2022/01/28 10:08:08;;;;;;;19.02;4.32;;;;;;;-146.48;100.00;37978.97;5305354;28;20047;-69
2022/01/28 10:11:00;;;;;;;17.13;4.15;;;;;;;-146.48;100.00;38144.34;5305577;28;20224;-68
2022/01/28 10:13:46;;;;;;;20.50;3.67;;;;;;;-146.48;100.00;38076.59;5306153;28;20024;-68
2022/01/28 10:16:21;;;;;;;19.73;4.25;;;;;;;-146.48;100.00;38108.47;5304984;28;20502;-69
2022/01/28 10:19:00;;;;;;;17.35;2.72;;;;;;;-146.48;100.00;37953.06;5305656;28;20024;-68
2022/01/28 10:21:42;;;;;;;20.25;4.28;;;;;;;-146.48;100.00;37935.13;5306089;28;20406;-68
2022/01/28 10:24:24;;;;;;;17.95;3.55;;;;;;;-146.48;100.00;37957.06;5304557;28;20464;-67
2022/01/28 10:27:08;;;;;;;21.02;3.28;;;;;;;-146.48;100.00;37925.16;5305697;28;20431;-68
2022/01/28 10:29:42;;;;;;;12.45;2.55;;;;;;;-146.48;100.00;37911.22;5305855;28;20085;-67
2022/01/28 10:32:15;;;;;;;17.95;2.88;;;;;;;-146.48;100.00;37755.81;5304988;28;20028;-68
2022/01/28 10:34:49;;;;;;;16.65;2.78;;;;;;;-146.48;100.00;37711.97;5305665;28;20032;-68
2022/01/28 10:37:30;;;;;;;15.23;2.92;;;;;;;-146.48;100.00;37789.69;5304429;28;20028;-68
2022/01/28 10:40:09;;;;;;;17.00;3.78;;;;;;;-146.48;100.00;37737.88;5305342;28;20028;-68
2022/01/28 10:42:48;;;;;;;;;;;;;;;-146.48;100.00;37733.91;5306035;28;20020;-67
2022/01/28 10:45:28;;;;;;;18.83;2.70;;;;;;;-146.48;100.00;37700.03;5302023;28;20400;-67
2022/01/28 10:48:00;;;;;;;17.10;2.92;;;;;;;-146.48;100.00;37640.25;5304547;28;20099;-68
2022/01/28 10:50:35;;;;;;;17.48;3.13;;;;;;;-146.48;100.00;37566.53;5305299;28;20127;-68
2022/01/28 10:53:07;;;;;;;15.30;3.00;;;;;;;-146.48;100.00;37574.50;5304101;28;20016;-68
2022/01/28 10:55:49;;;;;;;17.50;3.13;;;;;;;-146.48;100.00;37502.78;5305261;28;20455;-68
2022/01/28 10:58:24;;;;;;;24.35;4.10;;;;;;;-146.48;100.00;37401.19;5304128;28;20028;-68
2022/01/28 11:00:59;;;;;;;17.45;2.90;;;;;;;-146.48;100.00;37217.91;5304932;28;20028;-69
2022/01/28 11:03:31;;;;;;;16.58;2.95;;;;;;;-146.48;100.00;36889.22;5305254;28;20034;-67
2022/01/28 11:06:05;;;;;;;19.15;2.42;;;;;;;-146.48;100.00;36709.97;5301979;28;20475;-68
2022/01/28 11:08:36;;;;;;;15.95;2.80;;;;;;;-146.48;100.00;36522.75;5305424;28;20474;-68
2022/01/28 11:11:08;;;;;;;18.98;3.35;;;;;;;-146.48;100.00;36387.31;5304174;28;20030;-69
2022/01/28 11:13:41;;;;;;;13.40;2.20;;;;;;;-146.48;100.00;36233.94;5303955;28;20024;-69
2022/01/28 11:16:13;;;;;;;13.40;1.70;;;;;;;-146.48;100.00;36024.84;5304037;28;20363;-69
2022/01/28 11:18:45;;;;;;;19.90;2.72;;;;;;;-146.48;100.00;36026.81;5304886;28;20076;-68
2022/01/28 11:21:17;;;;;;;15.98;2.03;;;;;;;-146.48;100.00;35859.53;5303491;28;20036;-69
2022/01/28 11:23:56;;;;;;;12.90;2.33;;;;;;;-146.48;100.00;35750.03;5304851;28;20051;-68
2022/01/28 11:26:43;;;;;;;14.07;2.80;;;;;;;-146.48;100.00;35588.72;5303656;28;20027;-68
2022/01/28 11:29:20;;;;;;;12.05;1.65;;;;;;;-146.48;100.00;35477.22;5304367;28;20481;-69
2022/01/28 11:31:54;;;;;;;14.25;1.90;;;;;;;-146.48;100.00;35415.50;5304694;28;20052;-69
2022/01/28 11:34:27;;;;;;;14.10;1.90;;;;;;;-146.48;100.00;35317.91;5303609;28;20115;-68
2022/01/28 11:37:01;;;;;;;13.73;1.20;;;;;;;-146.48;100.00;35065.06;5303120;28;20061;-67
2022/01/28 11:39:33;;;;;;;12.68;1.15;;;;;;;-146.48;100.00;34800.25;5304292;28;20032;-65
2022/01/28 11:42:14;;;;;;;12.30;1.60;;;;;;;-146.48;100.00;34316.50;5302736;28;20035;-69
2022/01/28 11:44:51;;;;;;;11.07;1.17;;;;;;;-146.48;100.00;34089.59;5303898;28;20024;-69
2022/01/28 11:47:35;;;;;;;12.02;1.40;;;;;;;-146.48;100.00;34111.50;5302278;28;20082;-69
2022/01/28 11:50:09;;;;;;;12.52;1.70;;;;;;;-146.48;100.00;33974.16;5303756;28;20073;-68
2022/01/28 11:52:51;;;;;;;18.05;1.88;;;;;;;-146.48;100.00;34091.59;5304255;28;20054;-68
2022/01/28 11:55:28;;;;;;;15.30;1.45;;;;;;;-146.48;100.00;34067.69;5302767;28;20055;-68
2022/01/28 11:58:06;;;;;;;15.05;1.65;;;;;;;-146.48;100.00;34083.63;5302289;28;20535;-68
2022/01/28 12:00:45;;;;;;;14.73;0.80;;;;;;;-146.48;100.00;33661.66;5303845;28;20021;-67
2022/01/28 12:03:19;;;;;;;;;;;;;;;-146.48;100.00;33225.81;5302961;28;20034;-68
2022/01/28 12:05:56;;;;;;;15.05;1.00;;;;;;;-146.48;100.00;32833.78;5303582;28;20272;-67
2022/01/28 12:08:30;;;;;;;10.52;2.05;;;;;;;-146.48;100.00;32463.69;5303015;28;20087;-66
2022/01/28 12:11:06;;;;;;;15.07;2.38;;;;;;;-146.48;100.00;32085.66;5303187;28;20541;-67
2022/01/28 12:14:00;;;;;;;15.73;2.38;;;;;;;-146.48;100.00;31361.56;5303802;28;20463;-67
2022/01/28 12:16:40;;;;;;;12.40;1.55;;;;;;;-146.48;100.00;31154.69;5302885;28;20024;-68
2022/01/28 12:19:22;;;;;;;10.82;1.58;;;;;;;-146.48;100.00;30293.56;5303048;28;20031;-68
2022/01/28 12:22:09;;;;;;;11.38;1.00;;;;;;;-146.48;100.00;29432.59;5303337;28;20120;-67
2022/01/28 12:24:40;;;;;;;12.43;0.98;;;;;;;-146.48;100.00;28915.72;5302581;28;20035;-68
2022/01/28 12:27:13;;;;;;;10.77;0.82;;;;;;;-146.48;100.00;28343.25;5302868;28;20386;-68
2022/01/28 12:29:46;;;;;;;8.68;0.82;;;;;;;-146.48;100.00;28245.84;5302652;28;20027;-68
2022/01/28 12:32:24;;;;;;;9.75;1.00;;;;;;;-146.48;100.00;28363.13;5300204;28;20535;-69
2022/01/28 12:34:55;;;;;;;12.02;1.60;;;;;;;-146.48;100.00;28549.97;5302430;28;20035;-68
2022/01/28 12:37:32;;;;;;;10.63;1.42;;;;;;;-146.48;100.00;28679.16;5299277;28;20475;-68
2022/01/28 12:40:13;;;;;;;6.40;1.60;;;;;;;-146.48;100.00;28625.50;5302798;28;20020;-68
2022/01/28 12:42:45;;;;;;;10.73;1.58;;;;;;;-146.48;100.00;28760.66;5303079;28;20077;-68
2022/01/28 12:45:19;;;;;;;10.40;1.73;;;;;;;-146.48;100.00;28818.31;5301843;28;20094;-67
2022/01/28 12:47:51;;;;;;;14.77;2.13;;;;;;;-146.48;100.00;29201.97;5303280;28;20417;-68
2022/01/28 12:50:23;;;;;;;9.43;2.00;;;;;;;-146.48;100.00;29448.50;5301831;28;20066;-68
2022/01/28 12:52:54;;;;;;;11.70;1.92;;;;;;;-146.48;100.00;29635.38;5303059;28;20024;-68
2022/01/28 12:55:35;;;;;;;9.48;1.70;;;;;;;-146.48;100.00;29695.03;5302689;28;20042;-68
2022/01/28 12:58:10;;;;;;;11.70;2.22;;;;;;;-146.48;100.00;29740.78;5301781;28;20463;-69
2022/01/28 13:00:41;;;;;;;11.52;2.80;;;;;;;-146.48;100.00;29639.38;5302817;28;20024;-71
2022/01/28 13:03:27;;;;;;;14.35;3.67;;;;;;;-146.48;100.00;29482.31;5302270;28;20024;-69